createdAt,value
2017-11-06T00:01:24.855Z,7.60
2017-11-06T00:03:52.380Z,7.30
2017-11-06T00:06:20.687Z,7.50
2017-11-06T00:08:48.436Z,7.40
2017-11-06T00:11:15.978Z,7.40
2017-11-06T00:13:43.519Z,7.60
2017-11-06T00:16:11.035Z,7.70
2017-11-06T00:18:39.319Z,7.60
2017-11-06T00:21:06.876Z,7.60
2017-11-06T00:23:34.402Z,7.60
2017-11-06T00:26:01.938Z,7.50
2017-11-06T00:28:29.495Z,7.50
2017-11-06T00:30:57.016Z,7.50
2017-11-06T00:33:24.548Z,7.70
2017-11-06T00:35:52.109Z,7.40
2017-11-06T00:38:19.645Z,7.40
2017-11-06T00:40:47.184Z,7.40
2017-11-06T00:43:14.748Z,7.40
2017-11-06T00:45:42.283Z,7.60
2017-11-06T00:48:09.812Z,7.60
2017-11-06T00:50:37.349Z,7.30
2017-11-06T00:53:04.871Z,7.40
2017-11-06T00:55:33.162Z,7.50
2017-11-06T00:58:01.454Z,7.50
2017-11-06T01:00:28.963Z,7.40
2017-11-06T01:02:56.490Z,7.40
2017-11-06T01:05:24.808Z,7.60
2017-11-06T01:07:52.328Z,7.40
2017-11-06T01:10:19.898Z,7.60
2017-11-06T01:12:47.444Z,7.40
2017-11-06T01:15:14.967Z,7.60
2017-11-06T01:17:42.503Z,7.30
2017-11-06T01:20:10.068Z,7.30
2017-11-06T01:22:37.614Z,7.50
2017-11-06T01:25:05.160Z,7.60
2017-11-06T01:27:32.719Z,7.30
2017-11-06T01:30:00.243Z,7.40
2017-11-06T01:32:27.768Z,7.60
2017-11-06T01:34:55.335Z,7.40
2017-11-06T01:37:22.878Z,7.20
2017-11-06T01:39:50.414Z,7.40
2017-11-06T01:42:17.970Z,7.60
2017-11-06T01:44:45.482Z,7.30
2017-11-06T01:47:13.005Z,7.30
2017-11-06T01:49:41.322Z,7.40
2017-11-06T01:52:08.842Z,7.30
2017-11-06T01:54:36.380Z,7.50
2017-11-06T01:57:03.951Z,7.40
2017-11-06T01:59:31.516Z,7.40
2017-11-06T02:01:59.047Z,7.30
2017-11-06T02:04:26.601Z,7.40
2017-11-06T02:06:54.137Z,7.40
2017-11-06T02:09:21.656Z,7.30
2017-11-06T02:11:49.221Z,7.10
2017-11-06T02:14:16.737Z,7.30
2017-11-06T02:16:44.261Z,7.30
2017-11-06T02:19:12.567Z,7.10
2017-11-06T02:21:40.103Z,7.10
2017-11-06T02:24:07.615Z,7.30
2017-11-06T02:26:35.944Z,7.20
2017-11-06T02:29:03.488Z,7.30
2017-11-06T02:31:31.051Z,7.10
2017-11-06T02:33:58.598Z,7.10
2017-11-06T02:36:26.896Z,7.00
2017-11-06T02:38:54.444Z,6.90
2017-11-06T02:41:21.983Z,7.10
2017-11-06T02:43:49.506Z,7.00
2017-11-06T02:46:17.026Z,7.10
2017-11-06T02:48:45.392Z,7.00
2017-11-06T02:51:13.687Z,6.90
2017-11-06T02:53:41.212Z,7.20
2017-11-06T02:56:09.529Z,7.00
2017-11-06T02:58:37.053Z,7.00
2017-11-06T03:01:04.572Z,7.00
2017-11-06T03:03:32.135Z,6.80
2017-11-06T03:05:59.659Z,7.00
2017-11-06T03:08:27.176Z,7.10
2017-11-06T03:10:54.736Z,6.80
2017-11-06T03:13:23.055Z,6.80
2017-11-06T03:15:50.587Z,6.90
2017-11-06T03:18:18.131Z,6.80
2017-11-06T03:20:45.677Z,6.80
2017-11-06T03:23:13.206Z,6.80
2017-11-06T03:25:40.755Z,6.90
2017-11-06T03:28:08.300Z,6.80
2017-11-06T03:30:35.825Z,6.80
2017-11-06T03:33:03.383Z,6.80
2017-11-06T03:35:30.908Z,6.70
2017-11-06T03:37:59.193Z,6.80
2017-11-06T03:40:26.747Z,6.60
2017-11-06T03:42:54.258Z,6.60
2017-11-06T03:45:22.551Z,6.50
2017-11-06T03:47:50.091Z,6.50
2017-11-06T03:50:17.615Z,6.50
2017-11-06T03:52:45.283Z,6.40
2017-11-06T03:55:12.851Z,6.50
2017-11-06T03:57:40.398Z,6.30
2017-11-06T04:00:07.922Z,6.50
2017-11-06T04:02:35.469Z,6.30
2017-11-06T04:05:03.001Z,6.20
2017-11-06T04:07:32.894Z,6.40
2017-11-06T04:10:03.001Z,6.50
2017-11-06T04:12:32.863Z,6.30
2017-11-06T04:15:01.154Z,5.90
2017-11-06T04:17:28.707Z,6.40
2017-11-06T04:19:56.241Z,6.30
2017-11-06T04:22:23.789Z,6.50
2017-11-06T04:24:51.377Z,6.40
2017-11-06T04:27:18.898Z,6.30
2017-11-06T04:29:46.426Z,6.50
2017-11-06T04:32:13.985Z,6.40
2017-11-06T04:34:41.519Z,6.20
2017-11-06T04:37:09.066Z,6.20
2017-11-06T04:39:36.621Z,6.30
2017-11-06T04:42:04.153Z,6.50
2017-11-06T04:44:31.688Z,6.20
2017-11-06T04:46:59.239Z,6.20
2017-11-06T04:49:26.768Z,6.10
2017-11-06T04:51:54.304Z,6.20
2017-11-06T04:54:21.881Z,6.00
2017-11-06T04:56:49.444Z,6.10
2017-11-06T04:59:16.991Z,6.30
2017-11-06T05:01:44.565Z,6.20
2017-11-06T05:04:12.095Z,6.20
2017-11-06T05:06:39.627Z,6.00
2017-11-06T05:09:07.199Z,6.10
2017-11-06T05:11:34.748Z,6.00
2017-11-06T05:14:03.202Z,5.90
2017-11-06T05:16:30.763Z,6.20
2017-11-06T05:18:59.160Z,6.00
2017-11-06T05:21:26.718Z,6.00
2017-11-06T05:23:54.276Z,6.20
2017-11-06T05:26:21.817Z,6.20
2017-11-06T05:28:49.358Z,5.90
2017-11-06T05:31:16.926Z,6.20
2017-11-06T05:33:45.400Z,5.90
2017-11-06T05:36:13.037Z,6.00
2017-11-06T05:38:40.622Z,5.90
2017-11-06T05:41:08.200Z,5.90
2017-11-06T05:43:35.730Z,5.90
2017-11-06T05:46:03.455Z,5.90
2017-11-06T05:48:31.756Z,5.90
2017-11-06T05:51:00.035Z,5.90
2017-11-06T05:53:27.656Z,5.80
2017-11-06T05:55:55.189Z,5.80
2017-11-06T05:58:22.759Z,5.60
2017-11-06T06:00:50.366Z,5.70
2017-11-06T06:03:17.937Z,5.50
2017-11-06T06:05:45.501Z,5.70
2017-11-06T06:08:13.076Z,5.80
2017-11-06T06:10:40.643Z,5.60
2017-11-06T06:13:08.184Z,5.50
2017-11-06T06:15:36.529Z,5.50
2017-11-06T06:18:04.064Z,5.70
2017-11-06T06:20:31.608Z,5.70
2017-11-06T06:22:59.184Z,5.40
2017-11-06T06:25:27.504Z,5.60
2017-11-06T06:27:55.052Z,5.30
2017-11-06T06:30:22.624Z,5.40
2017-11-06T06:32:50.993Z,5.50
2017-11-06T06:35:19.421Z,5.10
2017-11-06T06:37:47.052Z,5.30
2017-11-06T06:40:14.596Z,5.10
2017-11-06T06:42:42.146Z,5.20
2017-11-06T06:45:09.710Z,5.20
2017-11-06T06:47:37.244Z,5.50
2017-11-06T06:50:04.784Z,5.30
2017-11-06T06:52:32.341Z,5.50
2017-11-06T06:54:59.907Z,5.40
2017-11-06T06:57:28.216Z,5.30
2017-11-06T06:59:55.820Z,5.40
2017-11-06T07:02:23.381Z,5.30
2017-11-06T07:04:50.949Z,5.50
2017-11-06T07:07:18.517Z,5.40
2017-11-06T07:09:46.109Z,5.40
2017-11-06T07:12:14.429Z,5.20
2017-11-06T07:14:42.014Z,5.40
2017-11-06T07:17:10.318Z,5.50
2017-11-06T07:19:37.861Z,5.40
2017-11-06T07:22:05.422Z,5.50
2017-11-06T07:24:32.952Z,5.40
2017-11-06T07:27:00.497Z,5.70
2017-11-06T07:29:28.096Z,5.70
2017-11-06T07:31:56.403Z,5.40
2017-11-06T07:34:23.957Z,5.40
2017-11-06T07:36:51.525Z,5.50
2017-11-06T07:39:19.081Z,6.00
2017-11-06T07:41:46.633Z,5.70
2017-11-06T07:44:14.966Z,5.90
2017-11-06T07:46:42.498Z,5.60
2017-11-06T07:49:10.034Z,6.00
2017-11-06T07:51:39.123Z,5.90
2017-11-06T07:54:06.892Z,6.00
2017-11-06T07:56:34.463Z,6.20
2017-11-06T07:59:02.900Z,6.30
2017-11-06T08:01:30.434Z,6.20
2017-11-06T08:03:57.986Z,6.30
2017-11-06T08:06:25.579Z,6.50
2017-11-06T08:08:53.896Z,6.80
2017-11-06T08:11:21.435Z,6.70
2017-11-06T08:13:49.004Z,7.00
2017-11-06T08:16:16.614Z,6.80
2017-11-06T08:18:44.153Z,6.80
2017-11-06T08:21:11.741Z,6.90
2017-11-06T08:23:39.268Z,7.10
2017-11-06T08:26:06.836Z,7.40
2017-11-06T08:28:35.171Z,7.60
2017-11-06T08:31:02.724Z,7.60
2017-11-06T08:33:30.265Z,8.00
2017-11-06T08:35:57.816Z,7.90
2017-11-06T08:38:25.371Z,8.20
2017-11-06T08:40:52.935Z,8.50
2017-11-06T08:43:21.274Z,8.70
2017-11-06T08:45:48.808Z,8.70
2017-11-06T08:48:16.402Z,9.10
2017-11-06T08:50:43.989Z,9.10
2017-11-06T08:53:11.534Z,9.10
2017-11-06T08:55:39.098Z,9.40
2017-11-06T08:58:06.671Z,9.40
2017-11-06T09:00:35.032Z,9.40
2017-11-06T09:03:03.344Z,9.60
2017-11-06T09:05:30.917Z,9.70
2017-11-06T09:07:59.254Z,10.00
2017-11-06T09:10:26.798Z,9.80
2017-11-06T09:12:54.404Z,10.00
2017-11-06T09:15:21.961Z,10.20
2017-11-06T09:17:49.493Z,10.40
2017-11-06T09:20:17.832Z,10.70
2017-11-06T09:22:46.135Z,10.70
2017-11-06T09:25:13.689Z,10.90
2017-11-06T09:27:41.258Z,10.90
2017-11-06T09:30:08.812Z,11.00
2017-11-06T09:32:36.356Z,11.20
2017-11-06T09:35:03.950Z,11.30
2017-11-06T09:37:31.543Z,11.50
2017-11-06T09:39:59.722Z,11.50
2017-11-06T09:42:27.268Z,11.70
2017-11-06T09:44:55.597Z,12.30
2017-11-06T09:47:23.135Z,12.30
2017-11-06T09:49:51.068Z,12.50
2017-11-06T09:52:18.622Z,12.60
2017-11-06T09:54:46.172Z,12.70
2017-11-06T09:57:13.738Z,12.80
2017-11-06T09:59:41.276Z,13.10
2017-11-06T10:02:08.809Z,13.10
2017-11-06T10:04:36.409Z,12.80
2017-11-06T10:07:04.745Z,13.00
2017-11-06T10:09:32.267Z,12.80
2017-11-06T10:12:00.094Z,12.80
2017-11-06T10:14:27.634Z,13.10
2017-11-06T10:16:55.203Z,13.30
2017-11-06T10:19:22.776Z,13.10
2017-11-06T10:21:51.025Z,13.30
2017-11-06T10:24:18.575Z,13.50
2017-11-06T10:26:46.136Z,13.90
2017-11-06T10:29:13.681Z,14.10
2017-11-06T10:31:41.239Z,13.90
2017-11-06T10:34:09.583Z,12.50
2017-11-06T10:36:37.937Z,12.10
2017-11-06T10:39:05.549Z,12.10
2017-11-06T10:41:33.136Z,11.80
2017-11-06T10:44:00.687Z,11.40
2017-11-06T10:46:28.294Z,11.80
2017-11-06T10:48:55.963Z,12.80
2017-11-06T10:51:23.995Z,13.40
2017-11-06T10:53:51.535Z,14.10
2017-11-06T10:56:19.089Z,14.60
2017-11-06T10:58:46.696Z,15.00
2017-11-06T11:01:14.252Z,14.60
2017-11-06T11:03:41.826Z,14.30
2017-11-06T11:06:09.420Z,13.90
2017-11-06T11:08:36.956Z,13.10
2017-11-06T11:11:05.284Z,12.10
2017-11-06T11:13:32.816Z,11.70
2017-11-06T11:16:00.373Z,11.50
2017-11-06T11:18:27.977Z,11.30
2017-11-06T11:20:55.568Z,11.10
2017-11-06T11:23:23.111Z,11.10
2017-11-06T11:25:50.689Z,10.70
2017-11-06T11:28:18.234Z,10.70
2017-11-06T11:30:46.540Z,10.80
2017-11-06T11:33:14.209Z,10.50
2017-11-06T11:35:41.769Z,10.80
2017-11-06T11:38:09.303Z,10.70
2017-11-06T11:40:36.908Z,11.00
2017-11-06T11:43:04.456Z,11.10
2017-11-06T11:45:32.024Z,11.10
2017-11-06T11:47:59.591Z,11.10
2017-11-06T11:50:27.135Z,10.90
2017-11-06T11:52:54.698Z,11.10
2017-11-06T11:55:22.257Z,10.60
2017-11-06T11:57:50.593Z,10.70
2017-11-06T12:00:18.133Z,10.70
2017-11-06T12:02:45.714Z,10.70
2017-11-06T12:05:14.026Z,10.20
2017-11-06T12:07:41.569Z,10.50
2017-11-06T12:10:09.140Z,10.50
2017-11-06T12:12:36.723Z,10.70
2017-11-06T12:15:05.084Z,10.90
2017-11-06T12:17:32.663Z,11.20
2017-11-06T12:20:00.378Z,11.10
2017-11-06T12:22:27.927Z,11.10
2017-11-06T12:24:55.475Z,11.20
2017-11-06T12:27:23.039Z,10.90
2017-11-06T12:29:50.592Z,11.10
2017-11-06T12:32:18.153Z,10.40
2017-11-06T12:34:46.126Z,10.40
2017-11-06T12:37:13.671Z,10.20
2017-11-06T12:39:41.227Z,9.80
2017-11-06T12:42:08.762Z,9.90
2017-11-06T12:44:37.058Z,9.50
2017-11-06T12:47:04.634Z,9.50
2017-11-06T12:49:32.173Z,9.70
2017-11-06T12:51:59.716Z,9.50
2017-11-06T12:54:27.304Z,9.50
2017-11-06T12:56:54.836Z,9.60
2017-11-06T12:59:22.375Z,9.80
2017-11-06T13:01:49.928Z,9.80
2017-11-06T13:04:17.464Z,9.40
2017-11-06T13:06:45.066Z,9.70
2017-11-06T13:09:12.642Z,9.40
2017-11-06T13:11:40.175Z,9.70
2017-11-06T13:14:07.700Z,9.50
2017-11-06T13:16:35.261Z,9.80
2017-11-06T13:19:03.034Z,9.70
2017-11-06T13:21:30.568Z,9.80
2017-11-06T13:23:58.164Z,9.80
2017-11-06T13:26:26.582Z,9.80
2017-11-06T13:28:54.137Z,9.40
2017-11-06T13:31:21.689Z,9.50
2017-11-06T13:33:49.238Z,9.50
2017-11-06T13:36:16.997Z,9.50
2017-11-06T13:38:45.411Z,9.60
2017-11-06T13:41:13.032Z,9.50
2017-11-06T13:43:40.733Z,9.50
2017-11-06T13:46:08.393Z,9.40
2017-11-06T13:48:36.713Z,9.20
2017-11-06T13:51:04.341Z,9.20
2017-11-06T13:53:31.994Z,9.20
2017-11-06T13:55:59.592Z,9.50
2017-11-06T13:58:27.236Z,9.20
2017-11-06T14:00:54.818Z,9.40
2017-11-06T14:03:23.207Z,9.50
2017-11-06T14:05:50.776Z,9.40
2017-11-06T14:08:18.329Z,9.40
2017-11-06T14:10:45.953Z,9.50
2017-11-06T14:13:13.502Z,9.60
2017-11-06T14:15:41.368Z,9.50
2017-11-06T14:18:09.009Z,9.40
2017-11-06T14:20:36.598Z,9.30
2017-11-06T14:23:04.982Z,9.20
2017-11-06T14:25:32.629Z,9.60
2017-11-06T14:28:00.420Z,9.30
2017-11-06T14:30:28.159Z,9.50
2017-11-06T14:32:55.755Z,9.20
2017-11-06T14:35:24.557Z,9.20
2017-11-06T14:37:52.142Z,9.40
2017-11-06T14:40:19.834Z,9.40
2017-11-06T14:42:47.479Z,9.20
2017-11-06T14:45:15.241Z,9.20
2017-11-06T14:47:42.970Z,9.20
2017-11-06T14:50:11.373Z,9.20
2017-11-06T14:52:38.936Z,9.20
2017-11-06T14:55:06.568Z,9.40
2017-11-06T14:57:34.106Z,9.20
2017-11-06T15:00:01.770Z,9.20
2017-11-06T15:02:29.316Z,9.10
2017-11-06T15:04:57.109Z,9.00
2017-11-06T15:07:25.435Z,8.90
2017-11-06T15:09:52.978Z,9.00
2017-11-06T15:12:20.629Z,8.90
2017-11-06T15:14:48.428Z,8.90
2017-11-06T15:17:16.647Z,8.90
2017-11-06T15:19:44.173Z,8.80
2017-11-06T15:22:11.752Z,8.80
2017-11-06T15:24:39.294Z,8.60
2017-11-06T15:27:06.922Z,8.90
2017-11-06T15:29:34.576Z,8.70
2017-11-06T15:32:02.131Z,8.60
2017-11-06T15:34:29.692Z,8.50
2017-11-06T15:36:58.007Z,8.30
2017-11-06T15:39:25.555Z,8.30
2017-11-06T15:41:53.093Z,8.30
2017-11-06T15:44:20.680Z,8.30
2017-11-06T15:46:48.301Z,8.50
2017-11-06T15:49:15.989Z,8.10
2017-11-06T15:51:43.569Z,8.10
2017-11-06T15:54:11.134Z,8.00
2017-11-06T15:56:38.684Z,8.30
2017-11-06T15:59:06.249Z,8.00
2017-11-06T16:01:33.805Z,8.00
2017-11-06T16:04:02.126Z,8.00
2017-11-06T16:06:29.709Z,8.00
2017-11-06T16:08:58.091Z,8.00
2017-11-06T16:11:25.726Z,8.00
2017-11-06T16:13:53.315Z,8.10
2017-11-06T16:16:20.869Z,8.00
2017-11-06T16:18:48.395Z,8.00
2017-11-06T16:21:16.002Z,8.10
2017-11-06T16:23:44.312Z,8.00
2017-11-06T16:26:11.997Z,8.00
2017-11-06T16:28:39.612Z,8.00
2017-11-06T16:31:07.301Z,8.10
2017-11-06T16:33:34.916Z,8.00
2017-11-06T16:36:02.797Z,8.00
2017-11-06T16:38:30.344Z,7.80
2017-11-06T16:40:58.701Z,7.80
2017-11-06T16:43:26.288Z,7.90
2017-11-06T16:45:53.841Z,7.70
2017-11-06T16:48:21.382Z,7.70
2017-11-06T16:50:49.228Z,7.90
2017-11-06T16:53:16.862Z,7.60
2017-11-06T16:55:44.492Z,7.70
2017-11-06T16:58:12.841Z,7.90
2017-11-06T17:00:40.382Z,7.70
2017-11-06T17:03:08.724Z,7.60
2017-11-06T17:05:36.429Z,7.70
2017-11-06T17:08:03.999Z,7.90
2017-11-06T17:10:31.576Z,7.50
2017-11-06T17:12:59.168Z,7.70
2017-11-06T17:15:26.804Z,7.50
2017-11-06T17:17:55.106Z,7.70
2017-11-06T17:20:22.659Z,7.70
2017-11-06T17:22:50.217Z,7.60
2017-11-06T17:25:17.809Z,7.60
2017-11-06T17:27:45.367Z,7.60
2017-11-06T17:30:12.936Z,7.60
2017-11-06T17:32:40.496Z,7.60
2017-11-06T17:35:08.070Z,7.60
2017-11-06T17:37:35.609Z,7.70
2017-11-06T17:40:03.938Z,7.60
2017-11-06T17:42:31.508Z,7.40
2017-11-06T17:44:59.071Z,7.40
2017-11-06T17:47:27.405Z,7.40
2017-11-06T17:49:54.981Z,7.50
2017-11-06T17:52:23.290Z,7.40
2017-11-06T17:54:50.837Z,7.50
2017-11-06T17:57:18.499Z,7.50
2017-11-06T17:59:46.062Z,7.30
2017-11-06T18:02:13.643Z,7.20
2017-11-06T18:04:41.208Z,7.10
2017-11-06T18:07:08.747Z,7.10
2017-11-06T18:09:36.275Z,7.10
2017-11-06T18:12:03.829Z,7.10
2017-11-06T18:14:31.361Z,7.10
2017-11-06T18:16:58.902Z,7.10
2017-11-06T18:19:27.223Z,7.20
2017-11-06T18:21:54.758Z,7.00
2017-11-06T18:24:22.326Z,7.00
2017-11-06T18:26:49.899Z,7.00
2017-11-06T18:29:17.508Z,7.20
2017-11-06T18:31:45.064Z,7.10
2017-11-06T18:34:12.647Z,7.10
2017-11-06T18:36:40.197Z,7.10
2017-11-06T18:39:07.759Z,7.40
2017-11-06T18:41:35.313Z,7.30
2017-11-06T18:44:02.863Z,7.30
2017-11-06T18:46:30.396Z,7.30
2017-11-06T18:48:57.947Z,7.10
2017-11-06T18:51:25.493Z,7.10
2017-11-06T18:53:53.043Z,6.90
2017-11-06T18:56:20.607Z,6.80
2017-11-06T18:58:48.165Z,7.10
2017-11-06T19:01:15.990Z,7.10
2017-11-06T19:03:43.610Z,7.20
2017-11-06T19:06:11.330Z,7.00
2017-11-06T19:08:46.444Z,7.10
2017-11-06T19:11:14.356Z,6.90
2017-11-06T19:13:42.328Z,7.10
2017-11-06T19:16:10.125Z,7.00
2017-11-06T19:18:37.941Z,6.90
2017-11-06T19:21:06.388Z,7.10
2017-11-06T19:23:33.936Z,7.10
2017-11-06T19:26:01.738Z,7.00
2017-11-06T19:28:29.710Z,6.90
2017-11-06T19:30:57.325Z,7.00
2017-11-06T19:33:24.918Z,7.00
2017-11-06T19:35:52.524Z,6.90
2017-11-06T19:38:20.121Z,7.00
2017-11-06T19:40:47.759Z,6.90
2017-11-06T19:43:16.938Z,6.60
2017-11-06T19:45:44.649Z,6.70
2017-11-06T19:48:12.361Z,6.70
2017-11-06T19:50:40.094Z,6.70
2017-11-06T19:53:07.730Z,6.70
2017-11-06T19:55:35.364Z,6.80
2017-11-06T19:58:03.003Z,6.60
2017-11-06T20:00:30.592Z,6.80
2017-11-06T20:02:58.125Z,6.90
2017-11-06T20:05:25.876Z,6.60
2017-11-06T20:07:53.422Z,6.80
2017-11-06T20:10:20.961Z,6.80
2017-11-06T20:12:48.511Z,6.70
2017-11-06T20:15:16.064Z,6.80
2017-11-06T20:17:43.609Z,6.70
2017-11-06T20:20:11.163Z,6.50
2017-11-06T20:22:39.462Z,6.60
2017-11-06T20:25:07.015Z,6.40
2017-11-06T20:27:34.612Z,6.60
2017-11-06T20:30:02.163Z,6.50
2017-11-06T20:32:30.474Z,6.40
2017-11-06T20:34:58.090Z,6.40
2017-11-06T20:37:25.770Z,6.10
2017-11-06T20:39:53.397Z,6.50
2017-11-06T20:42:20.978Z,6.40
2017-11-06T20:44:50.173Z,6.10
2017-11-06T20:47:17.815Z,6.50
2017-11-06T20:49:45.380Z,6.20
2017-11-06T20:52:14.106Z,6.20
2017-11-06T20:54:41.654Z,6.20
2017-11-06T20:57:09.296Z,6.30
2017-11-06T20:59:36.869Z,6.30
2017-11-06T21:02:04.418Z,6.30
2017-11-06T21:04:31.984Z,6.20
2017-11-06T21:07:00.340Z,6.30
2017-11-06T21:09:27.885Z,6.10
2017-11-06T21:11:55.446Z,6.00
2017-11-06T21:14:23.761Z,5.80
2017-11-06T21:16:51.287Z,6.00
2017-11-06T21:19:18.836Z,5.90
2017-11-06T21:21:46.380Z,5.90
2017-11-06T21:24:13.949Z,5.90
2017-11-06T21:26:41.519Z,5.90
2017-11-06T21:29:09.412Z,6.00
2017-11-06T21:31:38.327Z,5.70
2017-11-06T21:34:06.220Z,5.70
2017-11-06T21:36:33.807Z,5.70
2017-11-06T21:39:01.507Z,5.70
2017-11-06T21:41:29.137Z,5.50
2017-11-06T21:43:56.768Z,5.80
2017-11-06T21:46:24.643Z,5.50
2017-11-06T21:48:52.426Z,5.50
2017-11-06T21:51:20.044Z,5.50
2017-11-06T21:53:49.071Z,5.70
2017-11-06T21:56:16.700Z,5.50
2017-11-06T21:58:44.266Z,5.20
2017-11-06T22:01:11.935Z,5.50
2017-11-06T22:03:39.495Z,5.70
2017-11-06T22:06:07.043Z,5.20
2017-11-06T22:08:35.350Z,5.20
2017-11-06T22:11:02.904Z,5.10
2017-11-06T22:13:30.499Z,5.50
2017-11-06T22:15:58.273Z,5.10
2017-11-06T22:18:25.848Z,5.50
2017-11-06T22:20:53.400Z,5.50
2017-11-06T22:23:20.937Z,5.50
2017-11-06T22:25:48.496Z,5.40
2017-11-06T22:28:16.039Z,5.10
2017-11-06T22:30:43.608Z,5.40
2017-11-06T22:33:11.318Z,5.30
2017-11-06T22:35:38.980Z,5.30
2017-11-06T22:38:06.520Z,5.20
2017-11-06T22:40:34.079Z,5.20
2017-11-06T22:43:02.192Z,5.50
2017-11-06T22:45:32.653Z,5.30
2017-11-06T22:48:03.489Z,5.40
2017-11-06T22:50:32.370Z,5.50
2017-11-06T22:53:04.014Z,5.40
2017-11-06T22:55:32.912Z,5.20
2017-11-06T22:58:05.729Z,5.40
2017-11-06T23:00:33.465Z,5.20
2017-11-06T23:03:00.992Z,5.50
2017-11-06T23:05:28.556Z,5.10
2017-11-06T23:07:56.103Z,5.50
2017-11-06T23:10:23.829Z,5.30
2017-11-06T23:15:56.377Z,5.20
2017-11-06T23:18:24.965Z,5.40
2017-11-06T23:20:52.484Z,5.50
2017-11-06T23:23:20.022Z,5.50
2017-11-06T23:25:48.357Z,5.50
2017-11-06T23:28:15.876Z,5.40
2017-11-06T23:30:43.402Z,5.50
2017-11-06T23:33:10.973Z,5.10
2017-11-06T23:35:38.540Z,5.10
2017-11-06T23:38:06.072Z,5.50
2017-11-06T23:40:33.624Z,5.50
2017-11-06T23:43:01.146Z,5.10
2017-11-06T23:45:28.677Z,5.30
2017-11-06T23:47:56.232Z,5.10
2017-11-06T23:50:23.795Z,5.30
2017-11-06T23:52:51.325Z,5.20
2017-11-06T23:55:18.913Z,5.40
2017-11-06T23:57:47.231Z,5.20
